Time;durP1;ratioP1;P1;durP2;ratioP2;P2;SDS_P1;SDS_P2;PMS_P1;PMS_P2;Temp;Humidity;BMP_temperature;BMP_pressure;BME280_temperature;BME280_humidity;BME280_pressure;Samples;Min_cycle;Max_cycle;Signal;HPM_P1;HPM_P2
2023/05/22 00:03:14;;;;;;;9.70;8.55;;;;;;;24.46;39.34;101399.00;21000430;28;20045;-65
2023/05/22 00:13:17;;;;;;;10.07;9.07;;;;;;;24.64;39.31;101437.44;20998954;28;20052;-65
2023/05/22 00:23:18;;;;;;;10.50;9.18;;;;;;;24.57;39.24;101437.81;20998437;28;20037;-65
2023/05/22 00:33:20;;;;;;;10.52;9.43;;;;;;;24.22;39.25;101399.75;20995819;28;20040;-66
2023/05/22 00:43:21;;;;;;;10.63;9.52;;;;;;;24.62;38.87;101478.91;20996306;28;20052;-65
2023/05/22 00:53:27;;;;;;;11.48;10.15;;;;;;;24.64;38.71;101504.59;20995966;28;20166;-65
2023/05/22 01:03:30;;;;;;;13.15;11.32;;;;;;;24.49;38.60;101493.56;20995083;28;20494;-65
2023/05/22 01:13:41;;;;;;;12.00;10.38;;;;;;;24.64;38.53;101545.75;20994328;28;20037;-65
2023/05/22 01:24:19;;;;;;;10.30;9.20;;;;;;;24.61;38.90;101552.78;20993936;28;20033;-65
2023/05/22 01:34:21;;;;;;;11.57;9.48;;;;;;;24.65;38.60;101581.88;20993600;28;20037;-65
2023/05/22 01:44:23;;;;;;;10.80;9.70;;;;;;;24.66;39.00;101594.72;20992383;28;20049;-65
2023/05/22 01:54:36;;;;;;;11.15;9.80;;;;;;;24.66;38.96;101600.31;20992605;28;20397;-66
2023/05/22 02:04:45;;;;;;;11.85;9.85;;;;;;;24.67;38.88;101613.19;20992178;28;20041;-65
2023/05/22 02:14:47;;;;;;;10.07;9.02;;;;;;;24.52;39.08;101594.53;20991725;28;20040;-65
2023/05/22 02:24:52;;;;;;;11.90;9.90;;;;;;;24.68;38.86;101626.03;20990962;28;20125;-65
2023/05/22 02:34:57;;;;;;;9.63;8.55;;;;;;;24.58;38.96;101606.53;20989330;28;20045;-65
2023/05/22 02:44:59;;;;;;;10.32;9.18;;;;;;;24.67;39.00;101635.56;20990575;28;20446;-65
2023/05/22 02:55:00;;;;;;;10.30;9.10;;;;;;;24.67;39.13;101649.56;20990077;28;20041;-65
2023/05/22 03:05:02;;;;;;;10.90;9.00;;;;;;;24.67;39.12;101649.56;21002571;28;20450;-64
2023/05/22 03:15:03;;;;;;;9.52;8.43;;;;;;;24.64;39.22;101654.91;21003868;28;20037;-65
2023/05/22 03:25:08;;;;;;;9.63;8.63;;;;;;;24.58;39.14;101649.34;21003417;28;20044;-66
2023/05/22 03:35:09;;;;;;;9.32;8.15;;;;;;;24.65;39.20;101677.00;21002565;28;20045;-66
2023/05/22 03:45:11;;;;;;;10.68;9.57;;;;;;;24.62;39.40;101673.94;21001873;28;20070;-66
2023/05/22 03:55:12;;;;;;;9.82;8.82;;;;;;;24.66;39.15;101689.88;21000839;28;20475;-65
2023/05/22 04:05:16;;;;;;;10.00;8.35;;;;;;;24.59;39.24;101678.16;20999977;28;20482;-65
2023/05/22 04:15:18;;;;;;;10.20;9.00;;;;;;;24.65;39.06;101699.41;20998768;28;20040;-65
2023/05/22 04:25:20;;;;;;;9.98;8.88;;;;;;;24.58;39.19;101687.66;20998488;28;20097;-66
2023/05/22 04:35:22;;;;;;;9.20;8.25;;;;;;;24.51;39.28;101681.53;20997528;28;20450;-65
2023/05/22 04:45:24;;;;;;;8.73;7.65;;;;;;;24.40;39.36;101663.97;20996777;28;20377;-66
2023/05/22 04:55:25;;;;;;;9.38;8.38;;;;;;;24.61;39.16;101701.09;20996027;28;20032;-64
2023/05/22 05:05:29;;;;;;;9.75;7.93;;;;;;;24.61;39.16;101703.91;20995304;28;20036;-67
2023/05/22 05:15:30;;;;;;;9.15;8.23;;;;;;;24.62;39.32;101697.16;20994646;28;20040;-66
2023/05/22 05:25:32;;;;;;;9.23;7.78;;;;;;;24.55;39.42;101691.03;20993773;28;20491;-66
2023/05/22 05:35:33;;;;;;;9.18;8.27;;;;;;;24.45;39.19;101677.94;20993684;28;20040;-66
2023/05/22 05:45:35;;;;;;;9.20;8.07;;;;;;;24.61;39.26;101698.31;20993491;28;20044;-67
2023/05/22 05:55:36;;;;;;;9.85;8.48;;;;;;;24.63;39.41;101707.22;20993642;28;20110;-66
2023/05/22 06:05:37;;;;;;;9.68;8.32;;;;;;;24.60;39.09;101710.59;20992829;28;20078;-64
2023/05/22 06:15:39;;;;;;;9.18;7.82;;;;;;;24.26;39.13;101662.91;20992356;28;20045;-65
2023/05/22 06:25:40;;;;;;;9.02;8.13;;;;;;;24.57;39.47;101703.63;20991567;28;20105;-66
2023/05/22 06:35:45;;;;;;;8.70;7.80;;;;;;;24.57;39.41;101709.22;21001790;28;20044;-65
2023/05/22 06:45:46;;;;;;;8.15;7.28;;;;;;;24.57;39.34;101703.63;21006705;28;20041;-65
2023/05/22 06:55:47;;;;;;;8.20;7.40;;;;;;;24.53;39.45;101701.69;21005542;28;20115;-65
2023/05/22 07:05:50;;;;;;;9.23;8.23;;;;;;;24.57;39.27;101702.78;21005077;28;20455;-66
2023/05/22 07:15:51;;;;;;;8.93;8.02;;;;;;;24.55;39.62;101700.25;21004183;28;20040;-65
2023/05/22 07:25:52;;;;;;;8.70;7.80;;;;;;;24.55;39.62;101705.84;21003094;28;20036;-65
2023/05/22 07:35:54;;;;;;;8.82;7.93;;;;;;;24.54;39.68;101722.94;21002456;28;20479;-65
2023/05/22 07:45:56;;;;;;;9.10;7.93;;;;;;;24.26;40.30;101666.53;21001352;28;20162;-64
2023/05/22 07:55:57;;;;;;;9.07;7.80;;;;;;;24.50;40.40;101703.09;21001024;28;20040;-64
2023/05/22 08:05:58;;;;;;;8.90;8.00;;;;;;;24.50;40.54;101714.28;21000620;28;20392;-65
2023/05/22 08:16:00;;;;;;;9.38;8.38;;;;;;;24.48;40.36;101726.91;20999461;28;20106;-65
2023/05/22 08:26:03;;;;;;;9.75;8.10;;;;;;;24.49;40.64;101728.56;20998522;28;20036;-65
2023/05/22 08:36:05;;;;;;;10.25;9.23;;;;;;;24.48;40.66;101738.09;20997564;28;20117;-65
2023/05/22 08:46:07;;;;;;;10.43;8.50;;;;;;;24.49;40.40;101736.97;20996871;28;20466;-65
2023/05/22 08:56:09;;;;;;;9.38;8.38;;;;;;;24.41;40.49;101734.75;20995030;28;20044;-65
2023/05/22 09:06:11;;;;;;;10.15;9.05;;;;;;;24.47;40.48;101765.25;20995302;28;20040;-66
2023/05/22 09:16:13;;;;;;;9.77;8.77;;;;;;;23.98;40.19;101690.41;20994536;28;20094;-65
2023/05/22 09:26:15;;;;;;;9.40;8.40;;;;;;;24.50;40.40;101769.41;20994102;28;20040;-64
2023/05/22 09:36:16;;;;;;;9.68;8.68;;;;;;;24.46;40.20;101776.69;20993343;28;20048;-64
2023/05/22 09:46:18;;;;;;;10.27;9.18;;;;;;;24.49;40.59;101798.50;20992813;28;20040;-64
2023/05/22 09:56:22;;;;;;;9.80;8.07;;;;;;;24.49;40.55;101801.31;20992863;28;20041;-64
2023/05/22 10:06:26;;;;;;;10.65;9.07;;;;;;;24.48;40.25;101810.84;20995207;28;20053;-64
2023/05/22 10:16:29;;;;;;;9.80;8.68;;;;;;;24.48;40.27;101824.81;21008895;28;20037;-63
2023/05/22 10:26:33;;;;;;;10.35;9.07;;;;;;;24.29;40.26;101813.38;21007862;28;20041;-64
2023/05/22 10:37:07;;;;;;;10.52;9.13;;;;;;;24.41;40.60;101871.84;21006939;28;20109;-63
2023/05/22 10:47:11;;;;;;;9.27;8.32;;;;;;;24.43;40.40;101873.25;20982445;28;20041;-65
2023/05/22 10:57:17;;;;;;;9.13;8.13;;;;;;;24.27;40.26;101857.56;21005082;28;20392;-66
2023/05/22 11:07:19;;;;;;;9.98;8.98;;;;;;;24.43;40.31;101908.78;21004878;28;20040;-65
2023/05/22 11:17:30;;;;;;;9.95;8.95;;;;;;;24.37;40.47;101905.13;21003011;28;20059;-63
2023/05/22 11:27:35;;;;;;;9.15;8.25;;;;;;;24.14;40.60;101892.50;21003034;28;20040;-64
2023/05/22 11:37:38;;;;;;;9.75;8.75;;;;;;;24.17;40.83;101911.53;21002547;28;20044;-65
2023/05/22 11:47:40;;;;;;;10.60;8.90;;;;;;;24.21;40.59;101931.41;21001653;28;20039;-65
2023/05/22 11:57:43;;;;;;;9.68;8.60;;;;;;;24.19;40.93;101937.28;21001044;28;20045;-64
2023/05/22 12:07:47;;;;;;;9.60;8.43;;;;;;;24.05;40.61;101924.94;20999982;28;20042;-65
2023/05/22 12:17:48;;;;;;;10.43;8.77;;;;;;;24.24;40.59;101944.84;20999730;28;20045;-65
2023/05/22 12:27:50;;;;;;;10.77;9.38;;;;;;;24.33;40.55;101971.97;20998272;28;20438;-65
2023/05/22 12:37:51;;;;;;;9.75;8.75;;;;;;;24.34;40.58;101978.41;20997446;28;20049;-64
2023/05/22 12:47:53;;;;;;;9.52;8.52;;;;;;;24.40;40.38;101987.66;20997154;28;20061;-64
2023/05/22 12:57:54;;;;;;;9.35;8.45;;;;;;;24.41;40.25;101994.94;20996445;28;20041;-64
2023/05/22 13:07:55;;;;;;;10.63;9.05;;;;;;;24.31;40.47;101992.94;20995360;28;20047;-64
2023/05/22 13:17:57;;;;;;;9.98;8.25;;;;;;;24.45;40.38;102004.44;20994571;28;20036;-64
2023/05/22 13:28:00;;;;;;;10.68;9.07;;;;;;;24.45;40.44;102008.06;20994288;28;20048;-64
2023/05/22 13:38:02;;;;;;;9.75;8.75;;;;;;;24.43;40.45;102001.09;20993121;28;20044;-63
2023/05/22 13:48:03;;;;;;;8.68;7.78;;;;;;;24.54;40.12;101999.97;20993223;28;20029;-64
2023/05/22 13:58:04;;;;;;;9.13;8.02;;;;;;;24.50;40.35;101991.28;20992458;28;20086;-64
2023/05/22 14:08:06;;;;;;;9.15;7.88;;;;;;;24.54;40.02;102005.56;20991798;28;20045;-63
2023/05/22 14:18:12;;;;;;;9.27;8.23;;;;;;;24.58;39.87;101998.28;20991933;28;20035;-66
2023/05/22 14:28:19;;;;;;;9.73;8.55;;;;;;;24.60;39.64;102004.44;20991432;28;20074;-65
2023/05/22 14:38:25;;;;;;;9.53;8.53;;;;;;;24.29;39.70;101962.47;20990737;28;20045;-65
2023/05/22 14:48:28;;;;;;;8.73;7.78;;;;;;;24.70;39.57;102014.81;20990542;28;20088;-65
2023/05/22 14:58:29;;;;;;;9.10;7.88;;;;;;;24.71;39.57;102014.50;21000917;28;20126;-65
2023/05/22 15:08:35;;;;;;;8.85;7.95;;;;;;;24.51;39.63;101989.31;21004934;28;20097;-65
2023/05/22 15:18:36;;;;;;;8.50;7.50;;;;;;;24.62;39.65;102007.81;21003884;28;20488;-64
2023/05/22 15:28:37;;;;;;;8.45;7.65;;;;;;;24.77;39.69;102038.56;21003069;28;20549;-65
2023/05/22 15:38:42;;;;;;;9.05;8.07;;;;;;;24.76;39.36;102031.31;21002177;28;20036;-65
2023/05/22 15:48:49;;;;;;;9.00;8.10;;;;;;;24.70;39.43;102035.22;21001536;28;20040;-64
2023/05/22 15:58:55;;;;;;;9.63;8.47;;;;;;;24.79;39.61;102044.75;21000942;28;20056;-64
2023/05/22 16:08:57;;;;;;;8.48;7.57;;;;;;;24.81;39.44;102050.88;20999372;28;20044;-64
2023/05/22 16:18:58;;;;;;;7.95;7.15;;;;;;;24.79;39.35;102047.53;20999078;28;20098;-64
2023/05/22 16:28:59;;;;;;;8.80;7.90;;;;;;;24.78;39.44;102051.44;20998011;28;20040;-64
2023/05/22 16:39:01;;;;;;;8.02;7.22;;;;;;;24.86;39.47;102052.84;20997509;28;20040;-64
2023/05/22 16:49:02;;;;;;;8.93;7.70;;;;;;;24.88;39.27;102044.16;20995039;28;20048;-64
2023/05/22 16:59:04;;;;;;;8.20;7.35;;;;;;;24.90;39.12;102036.34;20995522;28;20105;-64
2023/05/22 17:09:06;;;;;;;8.15;7.35;;;;;;;24.91;39.09;102027.63;20994833;28;20067;-64
2023/05/22 17:19:08;;;;;;;8.80;6.93;;;;;;;24.79;38.85;101997.16;20993147;28;20483;-64
2023/05/22 17:29:12;;;;;;;8.40;7.53;;;;;;;25.01;38.91;102026.78;20993915;28;20387;-64
2023/05/22 17:39:14;;;;;;;8.48;7.53;;;;;;;24.99;38.63;102012.25;20993313;28;20040;-64
2023/05/22 17:49:15;;;;;;;8.88;7.72;;;;;;;25.03;38.71;102016.16;20992875;28;20146;-64
2023/05/22 17:59:16;;;;;;;8.27;7.35;;;;;;;25.03;38.56;102003.00;20992975;28;20032;-64
2023/05/22 18:09:18;;;;;;;7.90;7.10;;;;;;;25.07;38.37;102015.34;20992546;28;20048;-64
2023/05/22 18:19:19;;;;;;;8.30;7.50;;;;;;;25.11;38.70;102004.41;20991783;28;20048;-65
2023/05/22 18:29:23;;;;;;;9.13;7.85;;;;;;;25.12;38.59;102000.47;20997191;28;20045;-64
2023/05/22 18:39:24;;;;;;;8.18;7.10;;;;;;;25.15;38.36;101994.28;21007230;28;20044;-66
2023/05/22 18:49:25;;;;;;;8.32;7.13;;;;;;;25.16;38.16;102000.75;21006649;28;20045;-65
2023/05/22 18:59:27;;;;;;;9.02;7.57;;;;;;;25.20;38.07;101987.84;21005552;28;20101;-64
2023/05/22 19:09:31;;;;;;;8.02;7.13;;;;;;;25.21;38.19;101981.97;21004635;28;20086;-64
2023/05/22 19:19:35;;;;;;;7.60;6.80;;;;;;;24.92;37.96;101936.09;21004245;28;20044;-64
2023/05/22 19:29:37;;;;;;;9.35;8.02;;;;;;;25.20;37.63;101980.28;21003208;28;20040;-64
2023/05/22 19:39:38;;;;;;;8.57;7.13;;;;;;;24.98;38.03;101927.41;21001828;28;20070;-64
2023/05/22 19:49:39;;;;;;;8.18;6.72;;;;;;;24.38;37.87;101816.47;21001948;28;20043;-64
2023/05/22 19:59:41;;;;;;;7.85;7.03;;;;;;;25.24;38.07;101970.16;21001001;28;20056;-64
2023/05/22 20:09:42;;;;;;;7.93;7.00;;;;;;;25.29;37.99;101967.38;21000382;28;20433;-65
2023/05/22 20:19:46;;;;;;;7.30;6.60;;;;;;;25.23;38.34;101954.50;20999521;28;20086;-64
2023/05/22 20:29:53;;;;;;;7.00;6.30;;;;;;;25.13;38.11;101929.31;20998454;28;20074;-65
2023/05/22 20:39:56;;;;;;;7.67;6.57;;;;;;;25.26;37.99;101945.53;20998044;28;20376;-64
2023/05/22 20:49:57;;;;;;;8.48;7.43;;;;;;;25.32;38.05;101963.97;20997321;28;20044;-66
2023/05/22 21:00:00;;;;;;;8.00;7.20;;;;;;;25.35;37.92;101968.19;20996422;28;20040;-65
2023/05/22 21:10:04;;;;;;;7.60;6.60;;;;;;;25.23;37.89;101953.66;20995600;28;20040;-65
2023/05/22 21:20:06;;;;;;;7.55;6.80;;;;;;;25.14;38.08;101936.59;20994879;28;20051;-63
2023/05/22 21:30:11;;;;;;;8.25;7.10;;;;;;;25.39;38.02;101968.47;20994119;28;20036;-66
2023/05/22 21:40:13;;;;;;;7.60;6.80;;;;;;;25.40;38.12;101978.53;20993816;28;20184;-64
2023/05/22 21:50:20;;;;;;;8.80;7.90;;;;;;;25.37;38.28;101991.13;20993288;28;20442;-65
2023/05/22 22:00:22;;;;;;;8.00;7.20;;;;;;;25.40;38.32;101996.19;20993356;28;20044;-64
2023/05/22 22:10:23;;;;;;;7.97;6.95;;;;;;;25.41;37.92;102005.41;21019651;28;20033;-65
2023/05/22 22:20:24;;;;;;;8.45;7.55;;;;;;;25.42;38.05;102021.09;21019477;28;20052;-63
2023/05/22 22:30:28;;;;;;;10.68;8.57;;;;;;;25.30;38.24;102002.66;21019159;28;20110;-65
2023/05/22 22:40:30;;;;;;;9.05;7.50;;;;;;;25.43;38.29;102045.19;21018760;28;20040;-65
2023/05/22 22:50:31;;;;;;;8.75;7.45;;;;;;;25.45;38.28;102068.19;21018649;28;20044;-65
2023/05/22 23:00:33;;;;;;;9.02;8.10;;;;;;;25.44;38.25;102077.72;21017947;28;20051;-65
2023/05/22 23:10:34;;;;;;;9.13;8.23;;;;;;;25.43;38.55;102093.69;21017810;28;20056;-64
2023/05/22 23:20:35;;;;;;;9.35;8.30;;;;;;;25.43;38.54;102102.09;21004522;28;20050;-64
2023/05/22 23:30:37;;;;;;;11.27;8.27;;;;;;;25.35;38.65;102095.09;21003048;28;20098;-65
2023/05/22 23:40:38;;;;;;;9.00;8.00;;;;;;;25.45;38.61;102110.22;21002625;28;20059;-65
2023/05/22 23:50:39;;;;;;;8.68;7.70;;;;;;;25.43;38.65;102123.66;21001896;28;20067;-64
